Time;durP1;ratioP1;P1;durP2;ratioP2;P2;SDS_P1;SDS_P2;PMS_P1;PMS_P2;Temp;Humidity;BMP_temperature;BMP_pressure;BME280_temperature;BME280_humidity;BME280_pressure;Samples;Min_cycle;Max_cycle;Signal;HPM_P1;HPM_P2
2023/09/08 00:00:09;;;;;;;10.53;6.40;;;;;;;;;;5073649;28;21028;-66
2023/09/08 00:02:37;;;;;;;8.20;6.70;;;;;;;;;;5071912;28;20582;-66
2023/09/08 00:05:07;;;;;;;7.07;6.37;;;;;;;;;;5072559;28;20645;-66
2023/09/08 00:07:35;;;;;;;9.90;6.27;;;;;;;;;;5072788;28;20621;-67
2023/09/08 00:10:03;;;;;;;7.90;6.43;;;;;;;;;;5081471;28;21065;-66
2023/09/08 00:12:31;;;;;;;6.90;6.20;;;;;;;;;;5091007;28;20618;-66
2023/09/08 00:15:00;;;;;;;6.47;6.03;;;;;;;;;;5091578;28;20641;-66
2023/09/08 00:17:29;;;;;;;5.90;5.50;;;;;;;;;;5111523;28;20692;-66
2023/09/08 00:19:58;;;;;;;6.57;6.17;;;;;;;;;;5101133;28;20653;-66
2023/09/08 00:22:28;;;;;;;7.30;6.70;;;;;;;;;;5088025;28;20628;-66
2023/09/08 00:24:56;;;;;;;7.27;6.50;;;;;;;;;;5093180;28;20628;-66
2023/09/08 00:27:24;;;;;;;6.80;6.20;;;;;;;;;;5092630;28;20689;-66
2023/09/08 00:29:52;;;;;;;7.13;6.60;;;;;;;;;;5093503;28;20609;-66
2023/09/08 00:32:20;;;;;;;8.00;6.80;;;;;;;;;;5092563;28;20620;-66
2023/09/08 00:34:49;;;;;;;6.70;6.10;;;;;;;;;;5093177;28;20651;-66
2023/09/08 00:37:17;;;;;;;7.10;6.43;;;;;;;;;;5093787;28;21285;-66
2023/09/08 00:39:47;;;;;;;9.63;5.67;;;;;;;;;;5093546;28;20664;-66
2023/09/08 00:42:15;;;;;;;7.37;6.20;;;;;;;;;;5093765;28;20757;-66
2023/09/08 00:44:43;;;;;;;6.47;5.97;;;;;;;;;;5093087;28;20643;-65
2023/09/08 00:47:11;;;;;;;8.27;6.43;;;;;;;;;;5093356;28;20620;-65
2023/09/08 00:49:40;;;;;;;8.10;6.40;;;;;;;;;;5092794;28;20979;-65
2023/09/08 00:52:08;;;;;;;6.83;6.23;;;;;;;;;;5093187;28;21163;-65
2023/09/08 00:54:36;;;;;;;7.00;6.30;;;;;;;;;;5092623;28;21078;-65
2023/09/08 00:57:07;;;;;;;6.43;5.93;;;;;;;;;;5093408;28;20710;-65
2023/09/08 00:59:36;;;;;;;6.57;5.90;;;;;;;;;;5092748;28;20616;-66
2023/09/08 01:02:05;;;;;;;15.20;6.33;;;;;;;;;;5107971;28;20659;-65
2023/09/08 01:04:34;;;;;;;8.87;5.90;;;;;;;;;;5112852;28;20668;-65
2023/09/08 01:07:03;;;;;;;8.30;5.73;;;;;;;;;;5114047;28;20621;-67
2023/09/08 01:09:31;;;;;;;9.70;6.57;;;;;;;;;;5113803;28;20637;-63
2023/09/08 01:12:01;;;;;;;6.77;6.17;;;;;;;;;;5113126;28;20621;-67
2023/09/08 01:14:32;;;;;;;6.13;5.47;;;;;;;;;;5102687;28;20593;-64
2023/09/08 01:17:00;;;;;;;8.83;5.80;;;;;;;;;;5094554;28;20615;-64
2023/09/08 01:19:29;;;;;;;13.20;6.50;;;;;;;;;;5093707;28;20681;-64
2023/09/08 01:22:10;;;;;;;7.10;6.50;;;;;;;;;;5093994;28;20645;-64
2023/09/08 01:24:57;;;;;;;7.00;6.50;;;;;;;;;;5093561;28;20634;-67
2023/09/08 01:27:27;;;;;;;8.90;6.43;;;;;;;;;;5095497;28;20606;-67
2023/09/08 01:29:56;;;;;;;6.93;6.10;;;;;;;;;;5113801;28;20622;-67
2023/09/08 01:32:24;;;;;;;7.03;6.33;;;;;;;;;;5114234;28;20637;-66
2023/09/08 01:34:53;;;;;;;7.07;6.37;;;;;;;;;;5113393;28;20681;-63
2023/09/08 01:37:24;;;;;;;7.80;7.10;;;;;;;;;;5105738;28;20641;-65
2023/09/08 01:39:52;;;;;;;8.73;6.90;;;;;;;;;;5114466;28;20660;-64
2023/09/08 01:42:20;;;;;;;16.80;7.23;;;;;;;;;;5111936;28;20629;-64
2023/09/08 01:44:50;;;;;;;10.50;6.27;;;;;;;;;;5093487;28;20633;-64
2023/09/08 01:47:18;;;;;;;7.57;6.77;;;;;;;;;;5093027;28;21035;-65
2023/09/08 01:49:46;;;;;;;7.57;6.63;;;;;;;;;;5094040;28;20634;-64
2023/09/08 01:52:14;;;;;;;8.47;6.30;;;;;;;;;;5094490;28;20645;-64
2023/09/08 01:54:43;;;;;;;11.30;7.27;;;;;;;;;;5098146;28;20655;-63
2023/09/08 01:57:11;;;;;;;6.77;6.27;;;;;;;;;;5114702;28;20787;-64
2023/09/08 01:59:39;;;;;;;9.13;7.00;;;;;;;;;;5113874;28;20665;-66
2023/09/08 02:02:09;;;;;;;6.27;5.67;;;;;;;;;;5113923;28;20626;-66
2023/09/08 02:04:37;;;;;;;6.30;5.80;;;;;;;;;;5111213;28;20665;-66
2023/09/08 02:07:06;;;;;;;6.57;5.97;;;;;;;;;;5113731;28;20648;-64
2023/09/08 02:09:35;;;;;;;8.00;6.17;;;;;;;;;;5113583;28;20613;-65
2023/09/08 02:12:04;;;;;;;8.23;7.53;;;;;;;;;;5114449;28;20659;-63
2023/09/08 02:14:32;;;;;;;7.10;6.40;;;;;;;;;;5097581;28;20653;-64
2023/09/08 02:17:00;;;;;;;7.00;6.30;;;;;;;;;;5080567;28;20621;-65
2023/09/08 02:19:31;;;;;;;7.83;5.90;;;;;;;;;;5097340;28;20660;-64
2023/09/08 02:22:00;;;;;;;7.23;6.53;;;;;;;;;;5097044;28;20637;-66
2023/09/08 02:24:28;;;;;;;7.93;5.83;;;;;;;;;;5100110;28;20668;-66
2023/09/08 02:26:57;;;;;;;6.57;6.00;;;;;;;;;;5133819;28;20633;-66
2023/09/08 02:29:26;;;;;;;6.97;5.73;;;;;;;;;;5115797;28;20629;-64
2023/09/08 02:31:54;;;;;;;9.23;6.53;;;;;;;;;;5115184;28;20679;-64
2023/09/08 02:34:23;;;;;;;7.87;7.17;;;;;;;;;;5097982;28;20685;-63
2023/09/08 02:36:52;;;;;;;10.20;7.20;;;;;;;;;;5096227;28;20610;-64
2023/09/08 02:39:26;;;;;;;7.30;6.10;;;;;;;;;;5078917;28;21046;-67
2023/09/08 02:41:55;;;;;;;7.90;7.23;;;;;;;;;;5096460;28;20627;-63
2023/09/08 02:44:23;;;;;;;7.37;5.93;;;;;;;;;;5095444;28;20606;-65
2023/09/08 02:46:52;;;;;;;14.23;6.40;;;;;;;;;;5097117;28;20638;-63
2023/09/08 02:49:20;;;;;;;9.40;7.20;;;;;;;;;;5095879;28;20698;-66
2023/09/08 02:51:48;;;;;;;9.80;5.80;;;;;;;;;;5095910;28;20617;-63
2023/09/08 02:54:18;;;;;;;8.40;6.67;;;;;;;;;;5094680;28;20610;-65
2023/09/08 02:56:46;;;;;;;6.97;6.27;;;;;;;;;;5079644;28;20626;-63
2023/09/08 02:59:14;;;;;;;6.60;6.00;;;;;;;;;;5096580;28;20663;-63
2023/09/08 03:01:42;;;;;;;7.73;6.30;;;;;;;;;;5101185;28;20684;-64
2023/09/08 03:04:12;;;;;;;6.70;6.10;;;;;;;;;;5090536;28;20681;-63
2023/09/08 03:06:40;;;;;;;7.30;6.67;;;;;;;;;;5093823;28;20650;-63
2023/09/08 03:09:08;;;;;;;7.20;5.87;;;;;;;;;;5095936;28;20614;-66
2023/09/08 03:11:38;;;;;;;6.53;5.93;;;;;;;;;;5095185;28;20629;-66
2023/09/08 03:14:06;;;;;;;8.03;6.07;;;;;;;;;;5095707;28;20687;-64
2023/09/08 03:16:34;;;;;;;13.40;6.67;;;;;;;;;;5096306;28;20619;-65
2023/09/08 03:19:02;;;;;;;7.93;6.17;;;;;;;;;;5096121;28;20660;-64
2023/09/08 03:21:31;;;;;;;7.80;6.20;;;;;;;;;;5094793;28;20686;-65
2023/09/08 03:23:59;;;;;;;7.17;6.50;;;;;;;;;;5095209;28;20664;-64
2023/09/08 03:26:27;;;;;;;6.90;6.20;;;;;;;;;;5094127;28;20626;-67
2023/09/08 03:28:57;;;;;;;10.73;6.80;;;;;;;;;;5096240;28;20638;-67
2023/09/08 03:31:26;;;;;;;10.03;6.57;;;;;;;;;;5094304;28;20582;-67
2023/09/08 03:33:54;;;;;;;6.53;6.03;;;;;;;;;;5113257;28;20681;-63
2023/09/08 03:36:22;;;;;;;6.80;6.20;;;;;;;;;;5115268;28;20699;-66
2023/09/08 03:38:51;;;;;;;8.07;6.53;;;;;;;;;;5098397;28;20649;-63
2023/09/08 03:41:19;;;;;;;6.80;6.20;;;;;;;;;;5114052;28;20700;-66
2023/09/08 03:43:49;;;;;;;8.67;6.50;;;;;;;;;;5114774;28;20648;-63
2023/09/08 03:46:18;;;;;;;7.87;7.03;;;;;;;;;;5114446;28;20651;-66
2023/09/08 03:48:46;;;;;;;10.57;6.97;;;;;;;;;;5115594;28;20645;-63
2023/09/08 03:51:15;;;;;;;7.20;6.60;;;;;;;;;;5114608;28;20604;-63
2023/09/08 03:53:43;;;;;;;9.20;7.20;;;;;;;;;;5114444;28;20621;-63
2023/09/08 03:56:11;;;;;;;7.63;6.77;;;;;;;;;;5114213;28;20649;-65
2023/09/08 03:58:39;;;;;;;7.10;6.40;;;;;;;;;;5115517;28;20641;-64
2023/09/08 04:01:08;;;;;;;8.50;7.23;;;;;;;;;;5115260;28;20669;-66
2023/09/08 04:03:37;;;;;;;7.60;6.70;;;;;;;;;;5113201;28;20644;-67
2023/09/08 04:06:06;;;;;;;9.70;6.87;;;;;;;;;;5113907;28;21370;-66
2023/09/08 04:08:35;;;;;;;8.30;7.50;;;;;;;;;;5113187;28;20645;-63
2023/09/08 04:11:03;;;;;;;7.10;6.40;;;;;;;;;;5115502;28;20645;-63
2023/09/08 04:13:31;;;;;;;10.67;7.67;;;;;;;;;;5110516;28;20630;-63
2023/09/08 04:15:59;;;;;;;14.43;6.77;;;;;;;;;;5094566;28;20630;-65
2023/09/08 04:18:28;;;;;;;11.97;7.47;;;;;;;;;;5094211;28;20613;-63
2023/09/08 04:20:57;;;;;;;7.87;7.10;;;;;;;;;;5094793;28;21084;-67
2023/09/08 04:23:26;;;;;;;15.00;7.30;;;;;;;;;;5093367;28;20614;-66
2023/09/08 04:25:54;;;;;;;13.83;7.53;;;;;;;;;;5100612;28;20671;-63
2023/09/08 04:28:22;;;;;;;7.47;6.77;;;;;;;;;;5113763;28;20620;-66
2023/09/08 04:30:51;;;;;;;8.00;7.20;;;;;;;;;;5115094;28;20625;-64
2023/09/08 04:33:19;;;;;;;10.93;7.63;;;;;;;;;;5110529;28;20668;-66
2023/09/08 04:35:47;;;;;;;8.40;6.97;;;;;;;;;;5114027;28;20632;-64
2023/09/08 04:38:17;;;;;;;8.00;7.30;;;;;;;;;;5114651;28;20640;-67
2023/09/08 04:40:46;;;;;;;7.80;7.00;;;;;;;;;;5113855;28;20695;-63
2023/09/08 04:43:15;;;;;;;8.90;7.53;;;;;;;;;;5114364;28;20675;-63
2023/09/08 04:45:45;;;;;;;10.90;7.10;;;;;;;;;;5097418;28;20578;-64
2023/09/08 04:48:15;;;;;;;7.20;6.50;;;;;;;;;;5113776;28;20629;-66
2023/09/08 04:50:44;;;;;;;8.43;6.93;;;;;;;;;;5113189;28;20659;-67
2023/09/08 04:53:12;;;;;;;10.33;7.87;;;;;;;;;;5114343;28;20621;-64
2023/09/08 04:55:43;;;;;;;9.07;7.80;;;;;;;;;;5113267;28;20626;-64
2023/09/08 04:58:12;;;;;;;8.70;7.80;;;;;;;;;;5113553;28;20609;-65
2023/09/08 05:00:40;;;;;;;7.73;6.80;;;;;;;;;;5112401;28;20637;-64
2023/09/08 05:03:09;;;;;;;8.70;7.80;;;;;;;;;;5112453;28;20652;-64
2023/09/08 05:05:38;;;;;;;10.70;8.10;;;;;;;;;;5094291;28;20621;-62
2023/09/08 05:08:07;;;;;;;9.17;8.30;;;;;;;;;;5112760;28;20632;-62
2023/09/08 05:10:35;;;;;;;10.27;7.27;;;;;;;;;;5108612;28;20649;-67
2023/09/08 05:13:05;;;;;;;9.40;6.50;;;;;;;;;;5110723;28;20642;-65
2023/09/08 05:15:33;;;;;;;7.93;7.13;;;;;;;;;;5110415;28;20641;-65
2023/09/08 05:18:02;;;;;;;8.40;7.37;;;;;;;;;;5112020;28;20625;-65
2023/09/08 05:20:30;;;;;;;11.23;7.27;;;;;;;;;;5111118;28;20699;-66
2023/09/08 05:22:58;;;;;;;8.77;7.67;;;;;;;;;;5113420;28;20673;-65
2023/09/08 05:25:26;;;;;;;8.00;7.23;;;;;;;;;;5111636;28;20630;-65
2023/09/08 05:27:55;;;;;;;9.80;8.03;;;;;;;;;;5112262;28;20660;-68
2023/09/08 05:30:24;;;;;;;13.03;9.97;;;;;;;;;;5110875;28;20680;-65
2023/09/08 05:32:53;;;;;;;12.03;10.10;;;;;;;;;;5112421;28;20604;-66
2023/09/08 05:35:21;;;;;;;8.97;8.00;;;;;;;;;;5112155;28;20589;-67
2023/09/08 05:37:51;;;;;;;9.23;8.33;;;;;;;;;;5111317;28;20645;-64
2023/09/08 05:40:21;;;;;;;8.90;8.10;;;;;;;;;;5111958;28;20649;-67
2023/09/08 05:42:49;;;;;;;9.13;8.23;;;;;;;;;;5114076;28;20673;-66
2023/09/08 05:45:18;;;;;;;13.87;8.30;;;;;;;;;;5116589;28;20644;-68
2023/09/08 05:47:49;;;;;;;10.17;8.10;;;;;;;;;;5118857;28;20790;-64
2023/09/08 05:50:17;;;;;;;8.93;7.80;;;;;;;;;;5120287;28;20628;-68
2023/09/08 05:52:46;;;;;;;9.33;8.40;;;;;;;;;;5102668;28;20649;-64
2023/09/08 05:55:15;;;;;;;7.70;7.00;;;;;;;;;;5117521;28;20645;-67
2023/09/08 05:57:43;;;;;;;10.83;8.17;;;;;;;;;;5118899;28;20641;-67
2023/09/08 06:00:12;;;;;;;9.53;8.67;;;;;;;;;;5119003;28;20616;-66
2023/09/08 06:02:49;;;;;;;7.80;7.10;;;;;;;;;;5090782;28;20657;-65
2023/09/08 06:05:18;;;;;;;7.50;6.80;;;;;;;;;;5092936;28;21510;-65
2023/09/08 06:07:48;;;;;;;8.20;7.40;;;;;;;;;;5108238;28;21031;-65
2023/09/08 06:10:17;;;;;;;8.40;7.60;;;;;;;;;;5098325;28;20688;-65
2023/09/08 06:12:45;;;;;;;8.53;7.73;;;;;;;;;;5097141;28;21185;-64
2023/09/08 06:15:14;;;;;;;9.83;7.97;;;;;;;;;;5096762;28;20662;-65
2023/09/08 06:17:42;;;;;;;8.00;6.60;;;;;;;;;;5097286;28;21320;-61
2023/09/08 06:20:13;;;;;;;8.70;7.90;;;;;;;;;;5095790;28;21257;-62
2023/09/08 06:22:41;;;;;;;15.17;7.40;;;;;;;;;;5098924;28;20635;-62
2023/09/08 06:25:11;;;;;;;10.17;7.47;;;;;;;;;;5097682;28;20613;-64
2023/09/08 06:27:40;;;;;;;7.70;7.00;;;;;;;;;;5098093;28;20692;-65
2023/09/08 06:30:09;;;;;;;11.40;6.73;;;;;;;;;;5096355;28;20691;-65
2023/09/08 06:32:37;;;;;;;7.83;7.10;;;;;;;;;;5097589;28;20685;-65
2023/09/08 06:35:05;;;;;;;7.70;6.40;;;;;;;;;;5091278;28;20660;-66
2023/09/08 06:37:38;;;;;;;7.20;6.60;;;;;;;;;;5099844;28;20688;-64
2023/09/08 06:40:06;;;;;;;7.80;7.00;;;;;;;;;;5103900;28;20645;-65
2023/09/08 06:42:36;;;;;;;9.03;7.00;;;;;;;;;;5096932;28;21012;-65
2023/09/08 06:45:17;;;;;;;10.93;7.83;;;;;;;;;;5096763;28;20573;-65
2023/09/08 06:47:46;;;;;;;10.40;7.90;;;;;;;;;;5081284;28;20708;-64
2023/09/08 06:50:14;;;;;;;8.80;7.90;;;;;;;;;;5096851;28;20613;-65
2023/09/08 06:52:44;;;;;;;8.53;6.97;;;;;;;;;;5098760;28;20696;-65
2023/09/08 06:55:13;;;;;;;7.47;6.73;;;;;;;;;;5103318;28;20719;-65
2023/09/08 06:57:41;;;;;;;9.10;7.07;;;;;;;;;;5101351;28;20700;-64
2023/09/08 07:00:11;;;;;;;8.33;7.53;;;;;;;;;;5101502;28;20692;-64
2023/09/08 07:02:39;;;;;;;11.73;6.63;;;;;;;;;;5100441;28;20717;-65
2023/09/08 07:05:08;;;;;;;7.90;7.20;;;;;;;;;;5097433;28;20736;-64
2023/09/08 07:07:37;;;;;;;7.90;7.10;;;;;;;;;;5101122;28;20700;-64
2023/09/08 07:10:08;;;;;;;9.70;6.50;;;;;;;;;;5107173;28;20656;-63
2023/09/08 07:12:36;;;;;;;7.97;7.37;;;;;;;;;;5105276;28;20618;-63
2023/09/08 07:15:05;;;;;;;8.43;7.37;;;;;;;;;;5100897;28;20778;-65
2023/09/08 07:17:34;;;;;;;8.60;7.80;;;;;;;;;;5102960;28;20733;-64
2023/09/08 07:20:03;;;;;;;13.00;7.37;;;;;;;;;;5111601;28;20629;-64
2023/09/08 07:22:31;;;;;;;10.83;7.40;;;;;;;;;;5113570;28;20668;-64
2023/09/08 07:24:59;;;;;;;8.27;7.40;;;;;;;;;;5113271;28;20625;-64
2023/09/08 07:27:29;;;;;;;9.90;7.70;;;;;;;;;;5114109;28;20645;-64
2023/09/08 07:29:57;;;;;;;8.80;7.77;;;;;;;;;;5110185;28;20637;-64
2023/09/08 07:32:26;;;;;;;16.90;9.70;;;;;;;;;;5101158;28;21070;-64
2023/09/08 07:34:55;;;;;;;9.17;8.27;;;;;;;;;;5103776;28;20645;-64
2023/09/08 07:37:24;;;;;;;17.10;9.50;;;;;;;;;;5092140;28;20637;-64
2023/09/08 07:39:53;;;;;;;11.13;8.00;;;;;;;;;;5111018;28;20637;-64
2023/09/08 07:42:23;;;;;;;9.20;7.67;;;;;;;;;;5110701;28;20665;-64
2023/09/08 07:44:53;;;;;;;17.17;7.77;;;;;;;;;;5108748;28;20633;-65
2023/09/08 07:47:21;;;;;;;11.30;8.67;;;;;;;;;;5109883;28;20645;-64
2023/09/08 07:49:50;;;;;;;13.77;8.23;;;;;;;;;;5111766;28;20637;-63
2023/09/08 07:52:18;;;;;;;9.40;8.60;;;;;;;;;;5112726;28;20645;-65
2023/09/08 07:54:46;;;;;;;10.33;8.30;;;;;;;;;;5111386;28;20683;-64
2023/09/08 07:57:14;;;;;;;9.60;8.80;;;;;;;;;;5111409;28;20640;-63
2023/09/08 07:59:42;;;;;;;11.93;8.57;;;;;;;;;;5110489;28;20633;-64
2023/09/08 08:02:12;;;;;;;9.40;8.50;;;;;;;;;;5109351;28;20651;-65
2023/09/08 08:04:41;;;;;;;10.27;9.33;;;;;;;;;;5109324;28;20700;-65
2023/09/08 08:07:09;;;;;;;10.37;9.37;;;;;;;;;;5107911;28;20633;-63
2023/09/08 08:09:37;;;;;;;11.47;10.03;;;;;;;;;;5105745;28;20681;-63
2023/09/08 08:12:05;;;;;;;11.20;8.70;;;;;;;;;;5102790;28;20704;-66
2023/09/08 08:14:34;;;;;;;16.10;9.30;;;;;;;;;;5099537;28;21219;-65
2023/09/08 08:17:02;;;;;;;12.77;9.40;;;;;;;;;;5098353;28;20730;-64
2023/09/08 08:19:32;;;;;;;9.20;8.30;;;;;;;;;;5096116;28;20743;-64
2023/09/08 08:22:00;;;;;;;11.30;9.60;;;;;;;;;;5095745;28;20727;-64
2023/09/08 08:24:28;;;;;;;9.50;8.70;;;;;;;;;;5097162;28;21053;-64
2023/09/08 08:26:56;;;;;;;12.93;9.57;;;;;;;;;;5096296;28;21286;-62
2023/09/08 08:29:25;;;;;;;11.20;10.00;;;;;;;;;;5097704;28;20712;-62
2023/09/08 08:31:53;;;;;;;9.77;9.07;;;;;;;;;;5099888;28;20696;-62
2023/09/08 08:34:21;;;;;;;9.97;9.03;;;;;;;;;;5101077;28;20737;-63
2023/09/08 08:36:51;;;;;;;9.00;8.30;;;;;;;;;;5096059;28;21040;-63
2023/09/08 08:39:19;;;;;;;12.13;9.60;;;;;;;;;;5094405;28;20696;-66
2023/09/08 08:41:47;;;;;;;10.07;9.27;;;;;;;;;;5077877;28;20709;-65
2023/09/08 08:44:17;;;;;;;9.57;8.63;;;;;;;;;;5095347;28;20786;-65
2023/09/08 08:46:46;;;;;;;10.43;8.80;;;;;;;;;;5094586;28;20598;-65
2023/09/08 08:49:17;;;;;;;9.63;8.70;;;;;;;;;;5097319;28;20704;-63
2023/09/08 08:51:46;;;;;;;10.57;9.47;;;;;;;;;;5098154;28;20669;-63
2023/09/08 08:54:17;;;;;;;10.17;9.07;;;;;;;;;;5097854;28;20708;-65
2023/09/08 08:56:45;;;;;;;9.87;8.93;;;;;;;;;;5102142;28;20685;-64
2023/09/08 08:59:14;;;;;;;10.10;9.17;;;;;;;;;;5107100;28;20629;-62
2023/09/08 09:01:43;;;;;;;10.87;9.10;;;;;;;;;;5098667;28;20701;-62
2023/09/08 09:04:12;;;;;;;10.43;9.47;;;;;;;;;;5091957;28;20814;-62
2023/09/08 09:06:40;;;;;;;9.77;8.57;;;;;;;;;;5081733;28;20721;-63
2023/09/08 09:09:10;;;;;;;9.83;8.90;;;;;;;;;;5077975;28;20779;-62
2023/09/08 09:11:41;;;;;;;10.30;9.50;;;;;;;;;;5079803;28;21051;-63
2023/09/08 09:14:10;;;;;;;12.77;9.20;;;;;;;;;;5079649;28;20666;-62
2023/09/08 09:16:40;;;;;;;10.30;9.10;;;;;;;;;;5078194;28;20693;-62
2023/09/08 09:19:09;;;;;;;9.47;8.57;;;;;;;;;;5089555;28;20676;-62
2023/09/08 09:21:44;;;;;;;10.13;9.20;;;;;;;;;;5098386;28;20684;-63
2023/09/08 09:24:15;;;;;;;10.97;9.87;;;;;;;;;;5097078;28;21293;-62
2023/09/08 09:26:45;;;;;;;9.27;8.40;;;;;;;;;;5095492;28;20680;-63
2023/09/08 09:29:14;;;;;;;9.70;8.90;;;;;;;;;;5109208;28;20689;-66
2023/09/08 09:31:53;;;;;;;11.00;8.90;;;;;;;;;;5115359;28;20609;-68
2023/09/08 09:34:22;;;;;;;9.67;8.93;;;;;;;;;;5111128;28;21080;-67
2023/09/08 09:36:51;;;;;;;10.03;8.97;;;;;;;;;;5105937;28;20713;-65
2023/09/08 09:39:19;;;;;;;10.10;9.10;;;;;;;;;;5097403;28;21083;-65
2023/09/08 09:41:49;;;;;;;9.40;8.43;;;;;;;;;;5103592;28;20672;-65
2023/09/08 09:44:17;;;;;;;10.10;9.30;;;;;;;;;;5102485;28;20728;-62
2023/09/08 09:46:46;;;;;;;9.73;8.90;;;;;;;;;;5098366;28;20758;-62
2023/09/08 09:49:14;;;;;;;10.13;9.10;;;;;;;;;;5098746;28;21281;-66
2023/09/08 09:51:44;;;;;;;10.23;9.10;;;;;;;;;;5102228;28;20653;-62
2023/09/08 09:54:13;;;;;;;10.83;8.63;;;;;;;;;;5106022;28;20704;-65
2023/09/08 09:56:42;;;;;;;10.47;9.83;;;;;;;;;;5098399;28;20685;-64
2023/09/08 09:59:13;;;;;;;11.53;8.60;;;;;;;;;;5099510;28;20948;-65
2023/09/08 10:01:42;;;;;;;11.97;9.37;;;;;;;;;;5099405;28;20676;-65
2023/09/08 10:04:11;;;;;;;9.60;8.90;;;;;;;;;;5094520;28;20682;-64
2023/09/08 10:06:41;;;;;;;13.37;9.33;;;;;;;;;;5087370;28;20775;-66
2023/09/08 10:09:13;;;;;;;12.87;9.23;;;;;;;;;;5095249;28;20730;-66
2023/09/08 10:11:44;;;;;;;11.57;9.40;;;;;;;;;;5116289;22;20681;-86
2023/09/08 10:14:20;;;;;;;9.77;8.77;;;;;;;;;;5072864;28;20645;-87
2023/09/08 10:16:52;;;;;;;10.10;9.20;;;;;;;;;;5057319;28;20643;-86
2023/09/08 10:19:21;;;;;;;10.60;9.60;;;;;;;;;;5053514;28;20627;-87
2023/09/08 10:21:52;;;;;;;11.77;8.67;;;;;;;;;;5072839;28;20618;-89
2023/09/08 10:24:24;;;;;;;10.93;10.03;;;;;;;;;;5048814;28;20649;-87
2023/09/08 10:26:56;;;;;;;10.20;9.30;;;;;;;;;;5077039;28;20598;-89
2023/09/08 10:29:31;;;;;;;10.00;9.30;;;;;;;;;;5072395;28;20752;-87
2023/09/08 10:31:59;;;;;;;10.77;9.97;;;;;;;;;;5097017;28;20643;-87
2023/09/08 10:34:29;;;;;;;10.33;9.50;;;;;;;;;;5092419;28;20634;-87
2023/09/08 10:37:02;;;;;;;10.83;9.93;;;;;;;;;;5555860;22;20756;-87
2023/09/08 10:39:38;;;;;;;11.00;9.93;;;;;;;;;;5100748;28;20633;-87
2023/09/08 10:42:28;;;;;;;11.47;10.37;;;;;;;;;;5175747;22;20701;-87
2023/09/08 11:15:19;;;;;;;12.83;11.60;;;;;;;;;;5005640;23;20679;-90
2023/09/08 11:18:19;;;;;;;13.00;12.20;;;;;;;;;;4977236;28;20622;-90
2023/09/08 11:20:58;;;;;;;13.80;12.90;;;;;;;;;;4956701;28;20656;-91
2023/09/08 11:23:46;;;;;;;12.57;11.53;;;;;;;;;;4954838;28;20734;-89
2023/09/08 11:26:26;;;;;;;13.17;12.00;;;;;;;;;;4973995;28;20636;-90
2023/09/08 11:28:56;;;;;;;13.80;12.40;;;;;;;;;;4965654;28;21268;-90
2023/09/08 11:43:45;;;;;;;15.03;13.60;;;;;;;;;;5870095;23;20671;-90
2023/09/08 11:46:30;;;;;;;13.33;12.20;;;;;;;;;;4972683;28;20590;-90
2023/09/08 11:55:37;;;;;;;13.10;12.00;;;;;;;;;;4989577;28;20632;-89
2023/09/08 11:58:06;;;;;;;12.30;11.40;;;;;;;;;;4986107;28;20625;-90
2023/09/08 12:00:37;;;;;;;12.07;11.37;;;;;;;;;;4953942;28;20630;-88
2023/09/08 12:04:24;;;;;;;12.27;11.57;;;;;;;;;;4984171;28;20648;-92
2023/09/08 12:40:55;;;;;;;12.70;11.80;;;;;;;;;;5138049;23;20681;-89
2023/09/08 12:43:24;;;;;;;13.27;12.20;;;;;;;;;;4949303;29;20664;-89
2023/09/08 12:49:19;;;;;;;12.90;11.93;;;;;;;;;;5848302;23;20706;-89
2023/09/08 12:51:51;;;;;;;12.43;11.70;;;;;;;;;;4983042;28;20664;-90
2023/09/08 12:54:20;;;;;;;12.53;11.83;;;;;;;;;;4988839;28;20649;-90
2023/09/08 12:56:52;;;;;;;13.47;12.67;;;;;;;;;;4983511;28;20621;-89
2023/09/08 12:59:20;;;;;;;12.43;11.60;;;;;;;;;;4967625;28;20696;-91
2023/09/08 13:01:51;;;;;;;12.20;11.60;;;;;;;;;;4954101;28;20654;-90
2023/09/08 13:04:22;;;;;;;12.33;11.63;;;;;;;;;;4971161;28;20716;-91
2023/09/08 13:06:52;;;;;;;13.17;12.10;;;;;;;;;;4968366;28;21022;-90
2023/09/08 13:09:21;;;;;;;12.97;11.80;;;;;;;;;;4946252;28;20645;-89
2023/09/08 13:11:54;;;;;;;12.47;11.77;;;;;;;;;;4949710;29;20614;-91
2023/09/08 13:14:24;;;;;;;12.13;11.43;;;;;;;;;;4957540;29;20628;-91
2023/09/08 13:16:55;;;;;;;11.73;11.03;;;;;;;;;;4944391;29;20627;-90
2023/09/08 13:19:23;;;;;;;12.57;11.73;;;;;;;;;;4912408;29;20728;-90
2023/09/08 13:21:51;;;;;;;12.83;11.80;;;;;;;;;;4944590;29;20663;-89
2023/09/08 13:28:38;;;;;;;12.53;11.63;;;;;;;;;;4926137;29;20640;-91
2023/09/08 13:35:59;;;;;;;;;;;;;;;;;;;;;
2023/09/08 13:39:10;;;;;;;13.50;12.13;;;;;;;;;;4946474;29;20694;-89
2023/09/08 13:45:57;;;;;;;12.10;11.37;;;;;;;;;;4953479;29;20674;-92
2023/09/08 13:48:43;;;;;;;13.37;12.30;;;;;;;;;;4951917;28;20651;-90
2023/09/08 13:51:28;;;;;;;12.03;11.20;;;;;;;;;;4944288;28;20663;-89
2023/09/08 13:54:33;;;;;;;12.07;11.37;;;;;;;;;;4951024;29;20624;-91
2023/09/08 13:57:06;;;;;;;12.57;11.80;;;;;;;;;;4960883;29;20677;-91
2023/09/08 13:59:35;;;;;;;11.80;11.00;;;;;;;;;;4952229;28;20720;-89
2023/09/08 14:05:11;;;;;;;12.40;11.50;;;;;;;;;;4961839;29;20740;-91
2023/09/08 14:11:44;;;;;;;11.90;11.00;;;;;;;;;;5253178;23;20673;-90
2023/09/08 14:14:13;;;;;;;11.37;10.77;;;;;;;;;;4993990;28;20567;-88
2023/09/08 14:16:48;;;;;;;12.60;11.60;;;;;;;;;;4982322;28;20638;-89
2023/09/08 14:44:14;;;;;;;12.37;11.47;;;;;;;;;;5318205;23;20717;-88
2023/09/08 15:05:48;;;;;;;13.07;11.70;;;;;;;;;;4953141;28;20671;-89
2023/09/08 18:48:15;;;;;;;8.60;7.70;;;;;;;;;;5626042;23;20659;-88
